Time;durP1;ratioP1;P1;durP2;ratioP2;P2;SDS_P1;SDS_P2;PMS_P1;PMS_P2;Temp;Humidity;BMP_temperature;BMP_pressure;BME280_temperature;BME280_humidity;BME280_pressure;Samples;Min_cycle;Max_cycle;Signal;HPM_P1;HPM_P2
2024/04/06 00:03:50;;;;;;;3.80;1.77;;;;;14.60;100600.00;;;;10312155;28;20293;-79
2024/04/06 00:08:53;;;;;;;2.05;1.35;;;;;14.60;100606.00;;;;10314617;28;20277;-78
2024/04/06 00:13:55;;;;;;;7.05;1.77;;;;;14.60;100612.00;;;;10290188;28;20575;-79
2024/04/06 00:18:56;;;;;;;2.42;1.60;;;;;14.50;100602.00;;;;10313122;28;20228;-79
2024/04/06 00:23:56;;;;;;;2.13;1.63;;;;;14.50;100607.00;;;;10347056;28;20254;-79
2024/04/06 00:28:58;;;;;;;4.25;1.50;;;;;14.40;100614.00;;;;10349206;28;20633;-79
2024/04/06 00:34:02;;;;;;;4.97;1.63;;;;;14.40;100615.00;;;;10365554;28;20280;-79
2024/04/06 00:39:03;;;;;;;2.17;1.48;;;;;14.20;100615.00;;;;10349241;28;20218;-79
2024/04/06 00:44:04;;;;;;;2.55;1.70;;;;;14.10;100606.00;;;;10334322;28;20219;-79
2024/04/06 00:49:05;;;;;;;3.10;1.83;;;;;13.90;100597.00;;;;10356270;28;20230;-78
2024/04/06 00:54:06;;;;;;;5.68;2.15;;;;;13.90;100587.00;;;;10353655;28;20892;-82
2024/04/06 00:59:07;;;;;;;5.05;1.52;;;;;13.90;100587.00;;;;10330253;28;20249;-82
2024/04/06 01:04:08;;;;;;;5.57;2.25;;;;;13.90;100582.00;;;;10350285;28;20238;-90
2024/04/06 01:09:09;;;;;;;2.80;1.80;;;;;13.90;100570.00;;;;10365136;28;20225;-85
2024/04/06 01:14:10;;;;;;;3.38;1.70;;;;;13.90;100569.00;;;;10373477;28;20222;-84
2024/04/06 01:19:11;;;;;;;5.43;2.30;;;;;14.00;100575.00;;;;10359699;28;20228;-86
2024/04/06 01:24:28;;;;;;;4.28;2.08;;;;;14.10;100578.00;;;;10361406;28;20221;-86
2024/04/06 01:29:30;;;;;;;5.00;2.67;;;;;14.20;100547.00;;;;10396731;28;20245;-91
2024/04/06 01:34:31;;;;;;;3.97;2.05;;;;;14.30;100544.00;;;;10370341;28;20210;-82
2024/04/06 01:39:31;;;;;;;5.63;2.30;;;;;14.40;100541.00;;;;10386549;28;20237;-89
2024/04/06 01:44:33;;;;;;;4.22;2.10;;;;;14.40;100542.00;;;;10362816;28;20218;-88
2024/04/06 01:49:34;;;;;;;4.10;2.25;;;;;14.50;100536.00;;;;10358035;28;20214;-89
2024/04/06 01:54:35;;;;;;;4.40;2.05;;;;;14.50;100519.00;;;;10354463;28;20265;-88
2024/04/06 01:59:39;;;;;;;5.30;2.17;;;;;14.50;100530.00;;;;10301658;28;20235;-89
2024/04/06 02:04:40;;;;;;;3.78;2.08;;;;;14.40;100524.00;;;;10365000;28;20711;-76
2024/04/06 02:09:41;;;;;;;5.60;2.30;;;;;14.30;100535.00;;;;10347420;28;20222;-75
2024/04/06 02:14:42;;;;;;;4.30;1.73;;;;;14.20;100530.00;;;;10352503;28;20310;-80
2024/04/06 02:19:43;;;;;;;3.33;2.25;;;;;14.10;100507.00;;;;10334206;28;20230;-80
2024/04/06 02:24:45;;;;;;;4.78;2.65;;;;;14.10;100505.00;;;;10346549;28;20238;-77
2024/04/06 02:29:46;;;;;;;3.60;2.10;;;;;14.10;100506.00;;;;10325355;28;20226;-77
2024/04/06 02:34:46;;;;;;;3.67;2.30;;;;;14.00;100506.00;;;;10361388;28;20261;-78
2024/04/06 02:39:47;;;;;;;4.65;2.47;;;;;14.00;100497.00;;;;10371276;28;20232;-77
2024/04/06 02:44:48;;;;;;;5.43;2.78;;;;;14.10;100491.00;;;;10392149;28;20253;-77
2024/04/06 02:49:49;;;;;;;5.65;2.78;;;;;14.10;100490.00;;;;10345184;28;20942;-76
2024/04/06 02:54:50;;;;;;;4.80;2.33;;;;;14.20;100493.00;;;;10335590;28;20228;-78
2024/04/06 02:59:51;;;;;;;4.45;2.00;;;;;14.20;100493.00;;;;10347777;28;20218;-76
2024/04/06 03:04:52;;;;;;;5.32;2.20;;;;;14.20;100493.00;;;;10357071;28;20293;-78
2024/04/06 03:09:53;;;;;;;4.85;1.83;;;;;14.20;100497.00;;;;10379349;28;20221;-78
2024/04/06 03:14:54;;;;;;;2.75;1.92;;;;;14.20;100489.00;;;;10375211;28;20222;-76
2024/04/06 03:19:55;;;;;;;3.22;2.03;;;;;14.10;100477.00;;;;10366792;28;20980;-77
2024/04/06 03:24:57;;;;;;;3.83;1.90;;;;;14.00;100465.00;;;;10368767;28;20306;-80
2024/04/06 03:29:58;;;;;;;4.30;2.03;;;;;13.90;100476.00;;;;10308938;28;20689;-79
2024/04/06 03:34:59;;;;;;;2.63;1.75;;;;;13.90;100458.00;;;;10328630;28;20321;-79
2024/04/06 03:40:01;;;;;;;2.90;1.83;;;;;13.90;100462.00;;;;10357092;28;20288;-78
2024/04/06 03:45:03;;;;;;;6.57;2.10;;;;;13.90;100445.00;;;;10354850;28;20250;-80
2024/04/06 03:50:05;;;;;;;4.68;2.10;;;;;13.90;100434.00;;;;10351631;28;20825;-78
2024/04/06 03:55:06;;;;;;;4.18;1.88;;;;;14.00;100433.00;;;;10339195;28;20864;-79
2024/04/06 04:00:12;;;;;;;3.95;2.13;;;;;14.10;100433.00;;;;10353255;28;20227;-80
2024/04/06 04:05:13;;;;;;;5.80;2.03;;;;;14.20;100427.00;;;;10351386;28;20375;-79
2024/04/06 04:10:14;;;;;;;7.28;2.17;;;;;14.30;100432.00;;;;10339287;28;20222;-79
2024/04/06 04:15:15;;;;;;;3.30;2.15;;;;;14.30;100409.00;;;;10373672;28;20239;-78
2024/04/06 04:20:17;;;;;;;4.25;1.92;;;;;14.30;100399.00;;;;10354179;28;20218;-79
2024/04/06 04:25:17;;;;;;;4.35;1.77;;;;;14.30;100394.00;;;;10352051;28;20685;-79
2024/04/06 04:30:18;;;;;;;4.00;1.73;;;;;14.40;100390.00;;;;10351971;28;20245;-83
2024/04/06 04:35:20;;;;;;;4.75;1.77;;;;;14.50;100393.00;;;;10372342;28;20314;-76
2024/04/06 04:40:22;;;;;;;3.08;1.80;;;;;14.50;100396.00;;;;10332918;28;20240;-77
2024/04/06 04:45:23;;;;;;;4.82;2.58;;;;;14.50;100410.00;;;;10353454;28;20211;-76
2024/04/06 04:50:24;;;;;;;4.18;2.00;;;;;14.50;100423.00;;;;10352589;28;20217;-76
2024/04/06 04:55:25;;;;;;;3.55;1.70;;;;;14.50;100416.00;;;;10362287;28;20226;-76
2024/04/06 05:00:26;;;;;;;2.55;1.65;;;;;14.50;100413.00;;;;10352268;28;20585;-76
2024/04/06 05:05:27;;;;;;;6.00;2.13;;;;;14.50;100407.00;;;;10345900;28;20223;-76
2024/04/06 05:10:28;;;;;;;5.07;2.15;;;;;14.50;100406.00;;;;10351159;28;20578;-77
2024/04/06 05:15:29;;;;;;;5.18;2.20;;;;;14.50;100398.00;;;;10344302;28;20272;-77
2024/04/06 05:20:30;;;;;;;4.22;2.00;;;;;14.50;100393.00;;;;10344986;28;20824;-79
2024/04/06 05:25:32;;;;;;;3.92;2.08;;;;;14.50;100397.00;;;;10340516;28;20313;-77
2024/04/06 05:30:33;;;;;;;3.85;1.88;;;;;14.50;100401.00;;;;10355172;28;20214;-76
2024/04/06 05:35:34;;;;;;;3.63;1.70;;;;;14.50;100415.00;;;;10351500;28;20222;-76
2024/04/06 05:40:39;;;;;;;4.57;2.30;;;;;14.70;100413.00;;;;10338420;28;20309;-79
2024/04/06 05:45:41;;;;;;;3.28;2.00;;;;;14.90;100415.00;;;;10343481;28;20219;-79
2024/04/06 05:50:44;;;;;;;2.42;2.00;;;;;15.40;100405.00;;;;10350104;28;20233;-78
2024/04/06 05:55:46;;;;;;;4.07;1.70;;;;;15.90;100408.00;;;;10337958;28;20233;-79
2024/04/06 06:00:48;;;;;;;3.33;1.63;;;;;16.20;100408.00;;;;10351493;28;20802;-80
2024/04/06 06:05:49;;;;;;;5.00;2.17;;;;;16.40;100401.00;;;;10335586;28;20234;-79
2024/04/06 06:10:50;;;;;;;7.40;1.98;;;;;16.20;100407.00;;;;10324725;28;20229;-79
2024/04/06 06:15:51;;;;;;;3.00;1.65;;;;;16.10;100404.00;;;;10348998;28;20218;-80
2024/04/06 06:20:52;;;;;;;4.10;1.80;;;;;16.30;100407.00;;;;10352964;28;20617;-79
2024/04/06 06:25:53;;;;;;;2.97;1.60;;;;;16.90;100386.00;;;;10380301;28;20313;-79
2024/04/06 06:30:54;;;;;;;3.25;1.60;;;;;17.60;100391.00;;;;10347406;28;20228;-79
2024/04/06 06:35:55;;;;;;;5.53;1.67;;;;;18.10;100392.00;;;;10337520;28;20226;-79
2024/04/06 06:40:56;;;;;;;2.47;1.77;;;;;18.50;100397.00;;;;10326871;28;20218;-79
2024/04/06 06:45:57;;;;;;;6.47;2.05;;;;;18.70;100381.00;;;;10330927;28;20222;-79
2024/04/06 06:50:58;;;;;;;3.83;1.50;;;;;18.50;100382.00;;;;10359034;28;20226;-77
2024/04/06 06:55:59;;;;;;;2.58;1.33;;;;;18.30;100392.00;;;;10355066;28;20214;-75
2024/04/06 07:01:00;;;;;;;3.00;1.48;;;;;18.40;100405.00;;;;10360947;28;20273;-78
2024/04/06 07:06:03;;;;;;;4.10;1.40;;;;;18.90;100407.00;;;;10329234;28;20215;-77
2024/04/06 07:11:04;;;;;;;3.15;1.27;;;;;19.50;100403.00;;;;10326512;28;20223;-76
2024/04/06 07:16:13;;;;;;;1.95;1.40;;;;;19.90;100395.00;;;;10365107;28;20226;-77
2024/04/06 07:21:15;;;;;;;2.60;1.55;;;;;19.60;100403.00;;;;10402638;28;20221;-77
2024/04/06 07:26:16;;;;;;;4.57;1.20;;;;;19.40;100399.00;;;;10348551;28;20234;-78
2024/04/06 07:31:17;;;;;;;3.60;1.20;;;;;19.60;100391.00;;;;10334189;28;20886;-77
2024/04/06 07:36:18;;;;;;;4.18;1.20;;;;;20.30;100386.00;;;;10339857;28;20223;-78
2024/04/06 07:41:19;;;;;;;3.53;1.30;;;;;20.10;100382.00;;;;10348723;28;20214;-78
2024/04/06 07:46:20;;;;;;;2.88;1.30;;;;;19.80;100386.00;;;;10353371;28;20230;-77
2024/04/06 07:51:21;;;;;;;5.55;1.50;;;;;19.60;100379.00;;;;10354567;28;20279;-77
2024/04/06 07:56:22;;;;;;;1.77;1.00;;;;;19.50;100386.00;;;;10355432;28;20227;-77
2024/04/06 08:01:23;;;;;;;3.47;1.60;;;;;19.40;100376.00;;;;10371033;28;20730;-79
2024/04/06 08:06:23;;;;;;;2.25;1.40;;;;;19.40;100371.00;;;;10340594;28;20222;-78
2024/04/06 08:11:24;;;;;;;2.00;1.10;;;;;19.60;100364.00;;;;10320135;28;20222;-79
2024/04/06 08:16:25;;;;;;;3.42;1.30;;;;;19.80;100363.00;;;;10328073;28;20230;-80
2024/04/06 08:21:26;;;;;;;2.67;1.20;;;;;19.90;100353.00;;;;10349294;28;20226;-79
2024/04/06 08:26:27;;;;;;;2.13;0.90;;;;;19.90;100344.00;;;;10362559;28;20222;-79
2024/04/06 08:31:28;;;;;;;2.47;1.10;;;;;20.10;100325.00;;;;10341144;28;20711;-79
2024/04/06 08:36:29;;;;;;;2.85;1.52;;;;;20.50;100323.00;;;;10329401;28;20225;-79
2024/04/06 08:41:30;;;;;;;2.38;1.17;;;;;20.70;100300.00;;;;10330189;28;20272;-79
2024/04/06 08:46:31;;;;;;;3.50;1.17;;;;;21.50;100306.00;;;;10360316;28;20282;-79
2024/04/06 08:51:35;;;;;;;3.15;1.05;;;;;22.10;100294.00;;;;10350844;28;20301;-78
2024/04/06 08:56:36;;;;;;;3.17;1.35;;;;;22.80;100279.00;;;;10349013;28;20271;-78
2024/04/06 09:01:37;;;;;;;1.30;0.80;;;;;23.10;100294.00;;;;10366788;28;21119;-79
2024/04/06 09:06:39;;;;;;;2.60;0.90;;;;;23.50;100279.00;;;;10338825;28;20231;-79
2024/04/06 09:11:42;;;;;;;2.28;0.95;;;;;24.30;100269.00;;;;10353854;28;20214;-81
2024/04/06 09:16:43;;;;;;;2.20;1.17;;;;;24.60;100277.00;;;;10331306;28;20348;-82
2024/04/06 09:21:46;;;;;;;2.55;1.13;;;;;24.90;100285.00;;;;10348469;28;20219;-81
2024/04/06 09:26:47;;;;;;;3.00;1.10;;;;;24.50;100290.00;;;;10351154;28;20235;-81
2024/04/06 09:31:51;;;;;;;1.33;0.95;;;;;24.10;100307.00;;;;10364641;28;20229;-80
2024/04/06 09:36:56;;;;;;;2.83;1.23;;;;;23.90;100306.00;;;;10369508;28;20227;-80
2024/04/06 09:42:03;;;;;;;2.58;1.10;;;;;24.10;100294.00;;;;10366133;28;20225;-80
2024/04/06 09:47:06;;;;;;;3.55;1.10;;;;;24.20;100280.00;;;;10374148;28;20895;-81
2024/04/06 09:52:07;;;;;;;1.17;0.90;;;;;24.80;100286.00;;;;10348548;28;20246;-81
2024/04/06 09:57:08;;;;;;;3.30;1.20;;;;;25.10;100293.00;;;;10346143;28;20222;-80
2024/04/06 10:02:09;;;;;;;2.85;0.88;;;;;25.40;100289.00;;;;10343132;28;20301;-80
2024/04/06 10:07:10;;;;;;;3.65;1.10;;;;;26.10;100297.00;;;;10338197;28;20222;-80
2024/04/06 10:12:11;;;;;;;3.08;1.30;;;;;26.20;100304.00;;;;10335902;28;20211;-80
2024/04/06 10:17:15;;;;;;;1.55;0.80;;;;;26.20;100293.00;;;;10344230;28;20219;-81
2024/04/06 10:22:24;;;;;;;2.65;0.85;;;;;26.10;100281.00;;;;10344541;28;20230;-80
2024/04/06 10:27:25;;;;;;;3.85;1.00;;;;;26.30;100280.00;;;;10356140;28;20890;-79
2024/04/06 10:32:26;;;;;;;4.72;1.77;;;;;26.50;100263.00;;;;10343867;28;20221;-78
2024/04/06 10:37:27;;;;;;;1.25;0.80;;;;;26.90;100259.00;;;;10363107;28;20606;-80
2024/04/06 10:42:28;;;;;;;2.30;0.90;;;;;27.10;100254.00;;;;10370899;28;20237;-79
2024/04/06 10:47:29;;;;;;;2.30;1.08;;;;;27.80;100234.00;;;;10338449;28;20252;-80
2024/04/06 10:52:31;;;;;;;0.82;0.75;;;;;27.80;100233.00;;;;10351364;28;20249;-80
2024/04/06 10:57:32;;;;;;;1.60;1.00;;;;;28.20;100237.00;;;;10350104;28;20276;-78
2024/04/06 11:02:33;;;;;;;3.17;0.82;;;;;27.90;100233.00;;;;10352956;28;20230;-79
2024/04/06 11:07:36;;;;;;;2.67;1.00;;;;;28.20;100224.00;;;;10349829;28;20226;-80
2024/04/06 11:12:41;;;;;;;2.50;1.00;;;;;28.10;100214.00;;;;10325754;28;20230;-79
2024/04/06 11:17:42;;;;;;;4.75;1.23;;;;;28.10;100213.00;;;;10348642;28;20230;-79
2024/04/06 11:22:43;;;;;;;0.88;0.77;;;;;28.30;100216.00;;;;10359327;28;20222;-79
2024/04/06 11:27:49;;;;;;;1.33;0.70;;;;;28.30;100214.00;;;;10344839;28;20575;-80
2024/04/06 11:32:51;;;;;;;4.95;1.20;;;;;28.40;100218.00;;;;10391285;28;20694;-90
2024/04/06 11:37:53;;;;;;;3.53;1.02;;;;;28.30;100224.00;;;;10356602;28;20666;-87
2024/04/06 11:42:54;;;;;;;5.40;1.15;;;;;28.50;100225.00;;;;10382941;28;20310;-89
2024/04/06 11:47:55;;;;;;;2.28;1.02;;;;;28.50;100239.00;;;;10338050;28;20218;-89
2024/04/06 11:52:56;;;;;;;2.60;1.10;;;;;28.30;100245.00;;;;10362012;28;20895;-89
2024/04/06 11:57:57;;;;;;;4.28;1.17;;;;;28.20;100264.00;;;;10392860;28;20225;-89
2024/04/06 12:02:58;;;;;;;1.67;1.30;;;;;28.10;100275.00;;;;10354140;28;20238;-88
2024/04/06 12:08:00;;;;;;;2.50;1.00;;;;;28.20;100305.00;;;;10370576;28;20214;-87
2024/04/06 12:13:01;;;;;;;7.10;1.20;;;;;27.90;100300.00;;;;10375314;28;20223;-90
2024/04/06 12:18:03;;;;;;;1.95;0.98;;;;;27.90;100305.00;;;;10355910;28;20301;-88
2024/04/06 12:23:04;;;;;;;1.92;0.98;;;;;28.20;100308.00;;;;10361099;28;20574;-90
2024/04/06 12:28:05;;;;;;;2.10;1.00;;;;;28.20;100308.00;;;;10394445;28;20226;-90
2024/04/06 12:33:06;;;;;;;3.85;1.30;;;;;28.50;100304.00;;;;10391471;28;20222;-86
2024/04/06 12:38:07;;;;;;;1.80;1.00;;;;;28.70;100316.00;;;;10355466;28;22212;-88
2024/04/06 12:43:08;;;;;;;4.15;1.10;;;;;28.80;100309.00;;;;10354796;28;20226;-89
2024/04/06 12:48:09;;;;;;;1.80;1.10;;;;;28.80;100295.00;;;;10370429;28;20678;-88
2024/04/06 12:53:10;;;;;;;3.33;1.30;;;;;29.00;100297.00;;;;10386520;28;20218;-87
2024/04/06 12:58:11;;;;;;;2.03;0.85;;;;;29.20;100311.00;;;;10353526;28;20233;-91
2024/04/06 13:03:12;;;;;;;1.95;1.10;;;;;28.80;100296.00;;;;10350314;28;20223;-89
2024/04/06 13:08:14;;;;;;;2.67;1.02;;;;;28.70;100302.00;;;;10354674;28;20273;-90
2024/04/06 13:13:15;;;;;;;2.72;1.00;;;;;28.70;100293.00;;;;10357953;28;20218;-89
2024/04/06 13:18:15;;;;;;;3.40;1.10;;;;;28.70;100296.00;;;;10373904;28;20224;-90
2024/04/06 13:23:18;;;;;;;6.88;1.40;;;;;28.70;100298.00;;;;10351369;28;20314;-89
2024/04/06 13:28:18;;;;;;;4.80;1.40;;;;;28.60;100281.00;;;;10375796;28;20223;-90
2024/04/06 13:33:19;;;;;;;6.05;1.40;;;;;28.70;100280.00;;;;10370558;28;20298;-90
2024/04/06 13:38:21;;;;;;;3.55;1.20;;;;;28.60;100294.00;;;;10357855;28;20901;-91
2024/04/06 13:43:22;;;;;;;2.78;0.88;;;;;28.40;100284.00;;;;10356617;28;20227;-90
2024/04/06 13:48:23;;;;;;;2.30;1.00;;;;;28.40;100272.00;;;;10376029;28;20222;-89
2024/04/06 13:53:24;;;;;;;6.07;1.50;;;;;28.30;100271.00;;;;10384406;28;20901;-88
2024/04/06 13:58:25;;;;;;;4.55;1.30;;;;;28.40;100274.00;;;;10368617;28;20218;-85
2024/04/06 14:03:26;;;;;;;3.00;1.33;;;;;28.60;100265.00;;;;10325442;28;20229;-85
2024/04/06 14:08:27;;;;;;;5.70;1.60;;;;;28.60;100274.00;;;;10331399;28;20658;-86
2024/04/06 14:13:28;;;;;;;3.53;1.30;;;;;28.40;100290.00;;;;10349775;28;20280;-86
2024/04/06 14:18:29;;;;;;;2.15;1.17;;;;;28.10;100299.00;;;;10342466;28;21492;-87
2024/04/06 14:23:30;;;;;;;6.30;1.40;;;;;28.10;100293.00;;;;10371997;28;20590;-86
2024/04/06 14:28:31;;;;;;;3.47;1.08;;;;;28.00;100303.00;;;;10340531;28;20221;-85
2024/04/06 14:33:33;;;;;;;2.97;1.33;;;;;27.90;100306.00;;;;10337021;28;20219;-86
2024/04/06 14:38:34;;;;;;;5.28;1.48;;;;;27.80;100298.00;;;;10333940;28;20309;-85
2024/04/06 14:43:35;;;;;;;5.80;1.10;;;;;27.80;100310.00;;;;10342153;28;20234;-86
2024/04/06 14:48:36;;;;;;;2.92;1.42;;;;;27.60;100315.00;;;;10351390;28;20313;-87
2024/04/06 14:53:37;;;;;;;3.80;1.08;;;;;27.60;100308.00;;;;10365598;28;20226;-86
2024/04/06 14:58:38;;;;;;;6.93;1.17;;;;;27.60;100311.00;;;;10344981;28;20214;-86
2024/04/06 15:03:41;;;;;;;3.20;1.50;;;;;27.60;100332.00;;;;10341902;28;20218;-87
2024/04/06 15:08:42;;;;;;;7.82;2.00;;;;;27.50;100320.00;;;;10381205;28;20261;-91
2024/04/06 15:13:43;;;;;;;2.80;1.48;;;;;27.20;100318.00;;;;10354420;28;20988;-88
2024/04/06 15:18:44;;;;;;;3.40;1.20;;;;;27.00;100314.00;;;;10375943;28;20317;-89
2024/04/06 15:23:45;;;;;;;3.47;1.30;;;;;26.80;100325.00;;;;10384222;28;20253;-91
2024/04/06 15:28:46;;;;;;;2.83;1.13;;;;;26.70;100317.00;;;;10388952;28;20847;-90
2024/04/06 15:33:47;;;;;;;3.42;1.38;;;;;26.30;100314.00;;;;10376819;28;20230;-89
2024/04/06 15:38:50;;;;;;;3.35;1.38;;;;;26.20;100310.00;;;;10359774;28;20230;-89
2024/04/06 15:43:52;;;;;;;4.15;1.02;;;;;25.90;100317.00;;;;10358295;28;20231;-89
2024/04/06 15:48:53;;;;;;;3.35;1.30;;;;;25.60;100306.00;;;;10375828;28;20239;-85
2024/04/06 15:53:54;;;;;;;3.50;1.50;;;;;25.30;100303.00;;;;10388774;28;20303;-91
2024/04/06 15:58:55;;;;;;;6.82;1.17;;;;;25.00;100314.00;;;;10362507;28;20733;-90
2024/04/06 16:03:56;;;;;;;4.20;1.42;;;;;24.80;100308.00;;;;10351204;28;20217;-88
2024/04/06 16:08:57;;;;;;;3.30;1.38;;;;;24.80;100304.00;;;;10385818;28;20233;-87
2024/04/06 16:14:01;;;;;;;3.35;1.20;;;;;24.70;100303.00;;;;10362328;28;20220;-87
2024/04/06 16:19:03;;;;;;;3.30;1.17;;;;;24.70;100319.00;;;;10359559;28;20215;-87
2024/04/06 16:24:04;;;;;;;4.38;1.38;;;;;24.50;100315.00;;;;10352227;28;20218;-87
2024/04/06 16:29:05;;;;;;;3.10;1.65;;;;;24.10;100303.00;;;;10350428;28;20226;-87
2024/04/06 16:34:08;;;;;;;6.05;1.85;;;;;24.00;100316.00;;;;10324826;28;20686;-88
2024/04/06 16:39:10;;;;;;;4.35;1.70;;;;;23.90;100306.00;;;;10340625;28;20647;-86
2024/04/06 16:44:11;;;;;;;7.70;2.25;;;;;23.60;100305.00;;;;10361860;28;20230;-86
2024/04/06 16:49:12;;;;;;;3.88;1.85;;;;;23.40;100313.00;;;;10369750;28;20724;-87
2024/04/06 16:54:13;;;;;;;4.18;1.60;;;;;23.30;100318.00;;;;10353557;28;20218;-88
2024/04/06 16:59:14;;;;;;;3.10;1.90;;;;;23.20;100316.00;;;;10384404;28;20233;-88
2024/04/06 17:04:15;;;;;;;35.10;23.23;;;;;22.90;100314.00;;;;10337656;28;20238;-87
2024/04/06 17:09:16;;;;;;;2.42;1.50;;;;;22.70;100314.00;;;;10365391;28;20299;-86
2024/04/06 17:14:17;;;;;;;7.63;4.18;;;;;22.60;100295.00;;;;10352662;28;20678;-88
2024/04/06 17:19:18;;;;;;;4.88;1.90;;;;;22.60;100301.00;;;;10328805;28;20961;-88
2024/04/06 17:24:19;;;;;;;5.82;2.42;;;;;22.50;100296.00;;;;10363578;28;20222;-82
2024/04/06 17:29:20;;;;;;;5.65;1.83;;;;;22.30;100289.00;;;;10343896;28;20226;-82
2024/04/06 17:34:21;;;;;;;3.85;1.73;;;;;22.20;100291.00;;;;10354434;28;20875;-82
2024/04/06 17:39:23;;;;;;;5.07;1.70;;;;;22.10;100293.00;;;;10336103;28;20222;-83
2024/04/06 17:44:24;;;;;;;5.55;1.65;;;;;21.90;100291.00;;;;10337032;28;20221;-82
2024/04/06 17:49:25;;;;;;;5.03;1.52;;;;;21.80;100287.00;;;;10372549;28;20219;-82
2024/04/06 17:54:26;;;;;;;4.35;2.03;;;;;21.70;100283.00;;;;10357363;28;20833;-81
2024/04/06 17:59:27;;;;;;;6.15;1.83;;;;;21.50;100294.00;;;;10367066;28;20211;-82
2024/04/06 18:04:28;;;;;;;4.00;2.13;;;;;21.40;100293.00;;;;10343906;28;20227;-82
2024/04/06 18:09:29;;;;;;;5.05;2.50;;;;;21.20;100304.00;;;;10363148;28;20244;-83
2024/04/06 18:14:30;;;;;;;8.32;2.72;;;;;21.10;100317.00;;;;10340076;28;20230;-82
2024/04/06 18:19:31;;;;;;;9.10;2.50;;;;;20.90;100314.00;;;;10335821;28;20286;-82
2024/04/06 18:24:32;;;;;;;9.20;4.00;;;;;20.80;100308.00;;;;10322768;28;20230;-82
2024/04/06 18:29:33;;;;;;;6.53;4.25;;;;;20.60;100310.00;;;;10348898;28;20376;-83
2024/04/06 18:34:34;;;;;;;5.13;2.47;;;;;20.60;100299.00;;;;10338077;28;20225;-80
2024/04/06 18:39:36;;;;;;;5.30;2.80;;;;;20.60;100307.00;;;;10351425;28;20671;-79
2024/04/06 18:44:38;;;;;;;8.45;2.78;;;;;20.50;100318.00;;;;10337267;28;20226;-80
2024/04/06 18:49:39;;;;;;;7.38;2.67;;;;;20.40;100308.00;;;;10337669;28;20226;-79
2024/04/06 18:54:41;;;;;;;8.48;2.70;;;;;20.30;100314.00;;;;10349407;28;20590;-80
2024/04/06 18:59:42;;;;;;;3.95;2.63;;;;;20.20;100307.00;;;;10333691;28;20222;-79
2024/04/06 19:04:45;;;;;;;4.68;2.33;;;;;20.20;100301.00;;;;10328361;28;20227;-80
2024/04/06 19:09:46;;;;;;;5.38;2.55;;;;;20.20;100307.00;;;;10326682;28;20219;-80
2024/04/06 19:14:48;;;;;;;6.00;2.15;;;;;20.10;100311.00;;;;10363533;28;20237;-79
2024/04/06 19:19:49;;;;;;;5.35;2.33;;;;;20.10;100321.00;;;;10352041;28;20264;-79
2024/04/06 19:24:50;;;;;;;5.03;2.08;;;;;20.00;100333.00;;;;10355429;28;20653;-79
2024/04/06 19:29:51;;;;;;;4.40;2.38;;;;;19.90;100322.00;;;;10347317;28;21009;-79
2024/04/06 19:34:55;;;;;;;8.48;2.53;;;;;19.80;100319.00;;;;10365749;28;20253;-80
2024/04/06 19:39:56;;;;;;;6.25;2.88;;;;;19.80;100325.00;;;;10385781;28;20219;-79
2024/04/06 19:44:57;;;;;;;4.53;1.90;;;;;19.90;100325.00;;;;10403345;28;20223;-88
2024/04/06 19:49:58;;;;;;;3.58;1.95;;;;;19.90;100321.00;;;;10371138;28;20210;-89
2024/04/06 19:54:59;;;;;;;4.72;2.15;;;;;19.90;100324.00;;;;10365246;28;20219;-87
2024/04/06 20:00:00;;;;;;;4.20;1.95;;;;;19.80;100332.00;;;;10365465;28;20227;-85
2024/04/06 20:05:03;;;;;;;6.20;2.50;;;;;19.90;100318.00;;;;10386176;23;20250;-85
2024/04/06 20:10:04;;;;;;;4.97;2.20;;;;;19.90;100320.00;;;;10326466;28;20239;-89
2024/04/06 20:15:06;;;;;;;6.20;2.47;;;;;19.80;100333.00;;;;10316422;28;20675;-90
2024/04/06 20:20:07;;;;;;;8.63;2.42;;;;;19.70;100333.00;;;;10299763;28;20674;-89
2024/04/06 20:30:28;;;;;;;4.68;2.25;;;;;19.60;100306.00;;;;10316420;28;20220;-90
2024/04/06 20:35:29;;;;;;;4.25;2.10;;;;;19.60;100309.00;;;;10323286;28;20229;-88
2024/04/06 20:40:30;;;;;;;4.28;2.10;;;;;19.60;100314.00;;;;10318049;28;20224;-89
2024/04/06 20:45:31;;;;;;;6.57;2.55;;;;;19.60;100316.00;;;;10317037;28;20223;-90
2024/04/06 20:50:36;;;;;;;5.72;2.17;;;;;19.60;100316.00;;;;10319549;28;20223;-79
2024/04/06 20:55:37;;;;;;;4.53;2.47;;;;;19.30;100314.00;;;;10302474;28;20235;-79
2024/04/06 21:00:38;;;;;;;5.53;2.13;;;;;19.10;100296.00;;;;10313551;28;20219;-78
2024/04/06 21:05:39;;;;;;;3.83;2.47;;;;;18.90;100294.00;;;;10313852;28;20223;-79
2024/04/06 21:10:41;;;;;;;7.18;2.60;;;;;18.70;100281.00;;;;10308804;28;20295;-79
2024/04/06 21:15:41;;;;;;;5.05;3.08;;;;;18.60;100280.00;;;;10317132;28;20219;-78
2024/04/06 21:20:43;;;;;;;7.00;3.22;;;;;18.40;100276.00;;;;10317596;28;20211;-78
2024/04/06 21:25:44;;;;;;;8.63;3.35;;;;;18.30;100278.00;;;;10303015;28;20227;-79
2024/04/06 21:30:44;;;;;;;5.60;3.20;;;;;18.30;100289.00;;;;10296816;28;20223;-79
2024/04/06 21:35:45;;;;;;;6.45;2.97;;;;;18.20;100286.00;;;;10311525;28;20227;-78
2024/04/06 21:40:46;;;;;;;4.05;2.75;;;;;18.10;100286.00;;;;10327248;28;20234;-79
2024/04/06 21:45:47;;;;;;;4.32;2.70;;;;;18.10;100302.00;;;;10293910;28;20223;-78
2024/04/06 21:50:48;;;;;;;4.07;2.65;;;;;18.00;100293.00;;;;10310807;28;20929;-79
2024/04/06 21:55:49;;;;;;;5.57;2.72;;;;;18.00;100288.00;;;;10311161;28;20231;-78
2024/04/06 22:00:50;;;;;;;4.10;2.97;;;;;18.00;100279.00;;;;10291804;28;20215;-78
2024/04/06 22:05:51;;;;;;;4.45;2.40;;;;;17.90;100312.00;;;;10308238;28;20220;-79
2024/04/06 22:10:52;;;;;;;4.70;2.55;;;;;17.80;100310.00;;;;10295868;28;20847;-80
2024/04/06 22:15:53;;;;;;;9.68;2.85;;;;;17.80;100308.00;;;;10328033;28;20571;-79
2024/04/06 22:20:54;;;;;;;5.50;2.58;;;;;17.80;100305.00;;;;10305237;28;20226;-79
2024/04/06 22:25:55;;;;;;;3.95;2.38;;;;;17.80;100315.00;;;;10307840;28;22476;-79
2024/04/06 22:30:56;;;;;;;8.35;2.50;;;;;17.70;100304.00;;;;10314139;28;20215;-80
2024/04/06 22:35:57;;;;;;;5.28;3.05;;;;;17.70;100343.00;;;;10335530;28;20226;-79
2024/04/06 22:40:58;;;;;;;7.47;2.47;;;;;17.70;100360.00;;;;10287972;28;20230;-78
2024/04/06 22:45:59;;;;;;;5.60;2.42;;;;;17.70;100373.00;;;;10320344;28;20227;-79
2024/04/06 22:51:01;;;;;;;4.22;2.45;;;;;17.70;100366.00;;;;10314587;28;20219;-79
2024/04/06 22:56:03;;;;;;;6.60;2.60;;;;;17.80;100349.00;;;;10300283;28;20223;-78
2024/04/06 23:01:04;;;;;;;5.20;2.55;;;;;18.20;100391.00;;;;10314892;28;20950;-78
2024/04/06 23:06:05;;;;;;;5.18;2.33;;;;;18.40;100394.00;;;;10306893;28;20219;-78
2024/04/06 23:11:07;;;;;;;6.25;2.88;;;;;18.50;100395.00;;;;10304951;28;20258;-85
2024/04/06 23:16:08;;;;;;;8.65;3.03;;;;;18.50;100368.00;;;;10311792;28;20234;-84
2024/04/06 23:21:09;;;;;;;5.60;2.03;;;;;18.60;100392.00;;;;10311178;28;20262;-83
2024/04/06 23:26:10;;;;;;;7.38;2.22;;;;;18.60;100404.00;;;;10308348;28;20241;-83
2024/04/06 23:31:11;;;;;;;10.88;2.80;;;;;18.50;100424.00;;;;10317931;28;20234;-83
2024/04/06 23:36:12;;;;;;;7.32;2.22;;;;;18.40;100438.00;;;;10331052;28;20223;-83
2024/04/06 23:41:13;;;;;;;5.03;2.10;;;;;18.40;100449.00;;;;10298674;28;20227;-84
2024/04/06 23:46:14;;;;;;;7.28;2.55;;;;;18.40;100447.00;;;;10290757;28;20224;-83
2024/04/06 23:51:15;;;;;;;7.75;2.70;;;;;18.40;100460.00;;;;10329803;28;20571;-83
2024/04/06 23:56:16;;;;;;;8.35;2.10;;;;;18.40;100456.00;;;;10312828;28;20219;-84
